createdAt,value
2017-06-09T00:00:31.783Z,100740.16
2017-06-09T00:03:04.167Z,100725.36
2017-06-09T00:05:36.564Z,100727.46
2017-06-09T00:08:08.940Z,100725.50
2017-06-09T00:10:41.322Z,100721.94
2017-06-09T00:13:13.713Z,100722.66
2017-06-09T00:15:46.247Z,100719.48
2017-06-09T00:18:18.736Z,100715.76
2017-06-09T00:20:51.121Z,100707.53
2017-06-09T00:23:23.717Z,100706.71
2017-06-09T00:25:56.084Z,100708.78
2017-06-09T00:28:28.456Z,100700.31
2017-06-09T00:31:01.196Z,100696.94
2017-06-09T00:33:33.313Z,100698.22
2017-06-09T00:36:05.603Z,100689.86
2017-06-09T00:38:37.997Z,100691.69
2017-06-09T00:41:10.488Z,100692.71
2017-06-09T00:43:42.580Z,100689.02
2017-06-09T00:46:14.943Z,100694.55
2017-06-09T00:48:47.250Z,100694.11
2017-06-09T00:51:19.880Z,100693.44
2017-06-09T00:53:52.094Z,100689.18
2017-06-09T00:56:24.467Z,100687.58
2017-06-09T00:58:57.247Z,100684.50
2017-06-09T01:01:29.235Z,100682.39
2017-06-09T01:04:01.716Z,100685.05
2017-06-09T01:06:34.325Z,100686.63
2017-06-09T01:09:07.361Z,100692.52
2017-06-09T01:11:39.763Z,100690.75
2017-06-09T01:14:12.226Z,100688.47
2017-06-09T01:16:44.599Z,100692.92
2017-06-09T01:19:17.012Z,100691.00
2017-06-09T01:21:49.492Z,100689.66
2017-06-09T01:24:21.811Z,100695.80
2017-06-09T01:26:54.133Z,100697.73
2017-06-09T01:29:26.623Z,100691.20
2017-06-09T01:31:58.947Z,100691.31
2017-06-09T01:34:31.599Z,100685.86
2017-06-09T01:37:03.936Z,100688.77
2017-06-09T01:39:36.339Z,100690.84
2017-06-09T01:42:08.887Z,100682.66
2017-06-09T01:44:41.479Z,100676.44
2017-06-09T01:47:13.652Z,100681.27
2017-06-09T01:49:46.152Z,100705.13
2017-06-09T01:52:18.540Z,100706.68
2017-06-09T01:54:50.995Z,100708.28
2017-06-09T01:57:23.279Z,100707.91
2017-06-09T02:00:03.707Z,100715.33
2017-06-09T02:02:36.046Z,100727.12
2017-06-09T02:05:08.592Z,100730.19
2017-06-09T02:07:40.873Z,100728.34
2017-06-09T02:10:13.261Z,100724.48
2017-06-09T02:12:45.752Z,100708.04
2017-06-09T02:15:18.066Z,100703.39
2017-06-09T02:17:50.434Z,100703.17
2017-06-09T02:20:22.824Z,100687.47
2017-06-09T02:22:55.463Z,100690.58
2017-06-09T02:25:27.616Z,100685.34
2017-06-09T02:27:59.954Z,100681.78
2017-06-09T02:30:32.268Z,100688.19
2017-06-09T02:33:04.570Z,100691.73
2017-06-09T02:35:36.903Z,100691.37
2017-06-09T02:38:10.332Z,100694.09
2017-06-09T02:40:42.933Z,100682.11
2017-06-09T02:43:15.275Z,100682.28
2017-06-09T02:45:47.707Z,100679.28
2017-06-09T02:48:20.030Z,100670.19
2017-06-09T02:50:52.548Z,100665.44
2017-06-09T02:53:24.887Z,100662.02
2017-06-09T02:55:57.265Z,100662.74
2017-06-09T02:58:29.583Z,100657.20
2017-06-09T03:01:02.040Z,100659.02
2017-06-09T03:03:34.556Z,100653.05
2017-06-09T03:06:06.963Z,100648.42
2017-06-09T03:08:39.427Z,100646.61
2017-06-09T03:11:11.831Z,100639.62
2017-06-09T03:13:44.176Z,100645.22
2017-06-09T03:16:16.667Z,100641.84
2017-06-09T03:18:49.056Z,100629.12
2017-06-09T03:21:21.433Z,100644.24
2017-06-09T03:23:53.784Z,100636.89
2017-06-09T03:26:26.238Z,100640.08
2017-06-09T03:28:58.580Z,100635.62
2017-06-09T03:31:37.232Z,100635.06
2017-06-09T03:34:09.311Z,100634.90
2017-06-09T03:36:41.755Z,100634.73
2017-06-09T03:39:14.121Z,100625.39
2017-06-09T03:41:53.620Z,100617.85
2017-06-09T03:44:26.905Z,100621.62
2017-06-09T03:46:59.502Z,100622.30
2017-06-09T03:49:31.889Z,100623.25
2017-06-09T03:52:04.369Z,100624.55
2017-06-09T03:54:36.900Z,100626.35
2017-06-09T03:57:09.307Z,100619.59
2017-06-09T03:59:41.751Z,100627.28
2017-06-09T04:02:14.249Z,100631.36
2017-06-09T04:04:46.637Z,100619.34
2017-06-09T04:07:18.984Z,100615.86
2017-06-09T04:09:51.462Z,100606.77
2017-06-09T04:12:23.980Z,100600.98
2017-06-09T04:14:56.308Z,100601.44
2017-06-09T04:17:28.805Z,100599.09
2017-06-09T04:20:01.178Z,100601.84
2017-06-09T04:22:34.568Z,100599.05
2017-06-09T04:25:07.104Z,100593.97
2017-06-09T04:27:39.362Z,100583.92
2017-06-09T04:30:11.627Z,100590.98
2017-06-09T04:32:44.128Z,100598.75
2017-06-09T04:35:16.537Z,100600.65
2017-06-09T04:37:48.826Z,100599.67
2017-06-09T04:40:21.151Z,100610.99
2017-06-09T04:42:53.644Z,100612.71
2017-06-09T04:45:26.134Z,100605.08
2017-06-09T04:47:58.521Z,100606.56
2017-06-09T04:50:30.771Z,100599.43
2017-06-09T04:53:10.243Z,100589.42
2017-06-09T04:55:42.873Z,100590.18
2017-06-09T04:58:15.292Z,100586.09
2017-06-09T05:00:47.911Z,100574.97
2017-06-09T05:03:20.010Z,100569.74
2017-06-09T05:05:52.355Z,100566.37
2017-06-09T05:08:24.854Z,100560.97
2017-06-09T05:10:57.220Z,100560.05
2017-06-09T05:13:29.632Z,100554.86
2017-06-09T05:16:02.105Z,100554.59
2017-06-09T05:18:34.488Z,100562.92
2017-06-09T05:21:09.895Z,100563.20
2017-06-09T05:23:48.509Z,100562.36
2017-06-09T05:26:21.011Z,100546.91
2017-06-09T05:28:53.505Z,100558.20
2017-06-09T05:31:25.958Z,100553.72
2017-06-09T05:33:57.788Z,100553.02
2017-06-09T05:36:30.292Z,100545.52
2017-06-09T05:39:02.710Z,100539.13
2017-06-09T05:41:34.991Z,100544.36
2017-06-09T05:44:07.483Z,100546.75
2017-06-09T05:46:39.879Z,100557.52
2017-06-09T05:49:12.548Z,100556.23
2017-06-09T05:51:44.691Z,100556.58
2017-06-09T05:54:17.220Z,100552.66
2017-06-09T05:56:49.616Z,100555.53
2017-06-09T05:59:22.136Z,100563.41
2017-06-09T06:01:54.547Z,100565.21
2017-06-09T06:04:26.927Z,100574.02
2017-06-09T06:06:59.323Z,100574.59
2017-06-09T06:09:32.015Z,100573.50
2017-06-09T06:12:04.085Z,100571.81
2017-06-09T06:14:36.600Z,100570.55
2017-06-09T06:17:08.942Z,100572.03
2017-06-09T06:19:41.436Z,100564.49
2017-06-09T06:22:13.851Z,100565.70
2017-06-09T06:24:46.247Z,100573.29
2017-06-09T06:27:18.556Z,100572.72
2017-06-09T06:29:50.998Z,100574.85
2017-06-09T06:32:23.404Z,100565.48
2017-06-09T06:34:55.862Z,100562.73
2017-06-09T06:37:28.281Z,100562.08
2017-06-09T06:40:00.711Z,100561.16
2017-06-09T06:42:33.037Z,100555.53
2017-06-09T06:45:05.594Z,100549.56
2017-06-09T06:47:37.903Z,100551.16
2017-06-09T06:50:10.271Z,100553.42
2017-06-09T06:52:42.749Z,100548.27
2017-06-09T06:55:15.183Z,100544.77
2017-06-09T06:57:47.631Z,100529.02
2017-06-09T07:00:20.154Z,100529.31
2017-06-09T07:02:52.507Z,100521.51
2017-06-09T07:05:24.979Z,100527.51
2017-06-09T07:07:57.423Z,100523.20
2017-06-09T07:10:29.838Z,100511.98
2017-06-09T07:13:02.272Z,100512.48
2017-06-09T07:15:34.659Z,100507.51
2017-06-09T07:18:07.158Z,100501.91
2017-06-09T07:20:40.528Z,100507.97
2017-06-09T07:23:12.975Z,100518.00
2017-06-09T07:25:45.520Z,100522.17
2017-06-09T07:28:17.847Z,100533.41
2017-06-09T07:30:50.351Z,100541.59
2017-06-09T07:33:22.653Z,100538.62
2017-06-09T07:35:55.098Z,100537.23
2017-06-09T07:38:27.448Z,100523.39
2017-06-09T07:40:59.865Z,100525.45
2017-06-09T07:43:32.311Z,100517.51
2017-06-09T07:46:04.591Z,100517.34
2017-06-09T07:48:37.087Z,100497.80
2017-06-09T07:51:09.704Z,100489.09
2017-06-09T07:53:41.941Z,100482.33
2017-06-09T07:56:14.311Z,100477.77
2017-06-09T07:58:46.827Z,100476.38
2017-06-09T08:01:19.145Z,100486.44
2017-06-09T08:03:51.746Z,100484.46
2017-06-09T08:06:23.839Z,100485.32
2017-06-09T08:08:56.281Z,100482.92
2017-06-09T08:11:28.664Z,100491.61
2017-06-09T08:14:01.128Z,100479.82
2017-06-09T08:16:33.627Z,100484.10
2017-06-09T08:19:05.998Z,100476.05
2017-06-09T08:21:38.320Z,100478.16
2017-06-09T08:24:10.787Z,100471.70
2017-06-09T08:26:43.372Z,100479.76
2017-06-09T08:29:15.741Z,100473.75
2017-06-09T08:31:48.184Z,100474.98
2017-06-09T08:34:20.598Z,100478.73
2017-06-09T08:36:53.005Z,100469.38
2017-06-09T08:39:25.344Z,100469.41
2017-06-09T08:41:57.929Z,100455.83
2017-06-09T08:44:30.319Z,100454.62
2017-06-09T08:47:02.768Z,100442.44
2017-06-09T08:49:35.071Z,100438.02
2017-06-09T08:52:07.555Z,100437.67
2017-06-09T08:54:39.877Z,100438.91
2017-06-09T08:57:12.391Z,100436.04
2017-06-09T08:59:44.711Z,100434.70
2017-06-09T09:02:17.408Z,100426.95
2017-06-09T09:04:49.367Z,100421.43
2017-06-09T09:07:21.843Z,100426.82
2017-06-09T09:09:54.298Z,100423.11
2017-06-09T09:12:26.863Z,100419.23
2017-06-09T09:14:59.208Z,100417.85
2017-06-09T09:17:31.544Z,100423.02
2017-06-09T09:20:03.912Z,100427.48
2017-06-09T09:22:36.334Z,100425.76
2017-06-09T09:25:08.699Z,100423.77
2017-06-09T09:27:41.056Z,100422.45
2017-06-09T09:30:13.472Z,100424.55
2017-06-09T09:32:45.852Z,100427.23
2017-06-09T09:35:18.244Z,100415.05
2017-06-09T09:37:50.759Z,100415.91
2017-06-09T09:40:23.236Z,100422.27
2017-06-09T09:42:55.637Z,100427.23
2017-06-09T09:45:28.003Z,100420.66
2017-06-09T09:48:00.851Z,100423.39
2017-06-09T09:50:32.839Z,100428.66
2017-06-09T09:53:05.223Z,100434.97
2017-06-09T09:55:37.563Z,100426.15
2017-06-09T09:58:10.016Z,100426.73
2017-06-09T10:00:42.349Z,100433.38
2017-06-09T10:03:14.720Z,100441.50
2017-06-09T10:05:47.176Z,100441.20
2017-06-09T10:08:19.642Z,100445.84
2017-06-09T10:10:52.082Z,100445.50
2017-06-09T10:13:24.591Z,100437.44
2017-06-09T10:15:57.083Z,100441.66
2017-06-09T10:18:29.515Z,100450.30
2017-06-09T10:21:01.828Z,100460.83
2017-06-09T10:23:34.194Z,100448.20
2017-06-09T10:26:06.563Z,100435.70
2017-06-09T10:28:39.054Z,100437.36
2017-06-09T10:31:11.395Z,100438.88
2017-06-09T10:33:43.863Z,100433.83
2017-06-09T10:36:16.101Z,100435.92
2017-06-09T10:38:48.567Z,100440.33
2017-06-09T10:41:20.887Z,100438.58
2017-06-09T10:43:53.443Z,100438.61
2017-06-09T10:46:25.738Z,100444.92
2017-06-09T10:48:58.167Z,100462.53
2017-06-09T10:51:30.552Z,100447.90
2017-06-09T10:54:02.988Z,100451.75
2017-06-09T10:56:35.431Z,100458.63
2017-06-09T10:59:07.946Z,100459.29
2017-06-09T11:01:40.384Z,100457.80
2017-06-09T11:04:12.797Z,100464.66
2017-06-09T11:06:45.150Z,100464.88
2017-06-09T11:09:17.466Z,100464.14
2017-06-09T11:11:49.868Z,100464.06
2017-06-09T11:14:22.357Z,100462.58
2017-06-09T11:16:54.707Z,100472.46
2017-06-09T11:19:27.195Z,100468.55
2017-06-09T11:21:59.663Z,100491.31
2017-06-09T11:24:32.152Z,100499.33
2017-06-09T11:27:04.404Z,100499.41
2017-06-09T11:29:36.875Z,100504.99
2017-06-09T11:32:09.339Z,100509.02
2017-06-09T11:34:41.856Z,100507.94
2017-06-09T11:37:14.272Z,100507.84
2017-06-09T11:39:46.587Z,100515.47
2017-06-09T11:42:19.007Z,100523.95
2017-06-09T11:44:51.504Z,100539.50
2017-06-09T11:47:23.875Z,100545.27
2017-06-09T11:49:56.264Z,100552.73
2017-06-09T11:52:28.606Z,100557.61
2017-06-09T11:55:00.951Z,100560.14
2017-06-09T11:57:33.311Z,100568.33
2017-06-09T12:00:05.762Z,100574.56
2017-06-09T12:02:37.998Z,100598.55
2017-06-09T12:05:10.431Z,100608.78
2017-06-09T12:07:42.878Z,100630.50
2017-06-09T12:10:15.256Z,100631.30
2017-06-09T12:12:47.615Z,100645.78
2017-06-09T12:15:20.008Z,100647.23
2017-06-09T12:17:52.643Z,100669.95
2017-06-09T12:20:25.042Z,100680.64
2017-06-09T12:22:57.421Z,100694.80
2017-06-09T12:25:29.820Z,100699.27
2017-06-09T12:28:02.107Z,100707.03
2017-06-09T12:30:34.836Z,100712.05
2017-06-09T12:33:07.095Z,100706.53
2017-06-09T12:35:39.565Z,100717.57
2017-06-09T12:38:11.799Z,100721.52
2017-06-09T12:40:44.230Z,100719.91
2017-06-09T12:43:16.587Z,100707.00
2017-06-09T12:45:49.399Z,100720.52
2017-06-09T12:48:21.463Z,100722.96
2017-06-09T12:50:54.653Z,100731.72
2017-06-09T12:53:27.027Z,100733.56
2017-06-09T12:55:59.303Z,100726.25
2017-06-09T12:58:31.611Z,100714.31
2017-06-09T13:01:04.928Z,100719.82
2017-06-09T13:03:37.280Z,100719.27
2017-06-09T13:06:09.603Z,100716.47
2017-06-09T13:08:41.974Z,100725.87
2017-06-09T13:11:14.485Z,100725.16
2017-06-09T13:13:47.012Z,100738.83
2017-06-09T13:16:19.410Z,100737.91
2017-06-09T13:18:51.746Z,100738.81
2017-06-09T13:21:24.067Z,100740.05
2017-06-09T13:23:56.491Z,100749.67
2017-06-09T13:26:28.978Z,100755.17
2017-06-09T13:29:01.432Z,100764.62
2017-06-09T13:31:33.815Z,100758.34
2017-06-09T13:34:06.083Z,100764.33
2017-06-09T13:36:39.490Z,100758.97
2017-06-09T13:39:21.786Z,100746.44
2017-06-09T13:41:54.270Z,100755.30
2017-06-09T13:44:26.543Z,100763.22
2017-06-09T13:46:58.935Z,100760.45
2017-06-09T13:49:31.368Z,100759.37
2017-06-09T13:52:03.680Z,100765.76
2017-06-09T13:54:36.132Z,100759.63
2017-06-09T13:57:08.523Z,100753.05
2017-06-09T13:59:41.015Z,100755.86
2017-06-09T14:02:13.372Z,100747.30
2017-06-09T14:04:45.767Z,100744.91
2017-06-09T14:07:19.158Z,100746.57
2017-06-09T14:09:51.578Z,100753.91
2017-06-09T14:12:24.083Z,100746.31
2017-06-09T14:14:56.444Z,100751.58
2017-06-09T14:17:28.982Z,100754.17
2017-06-09T14:20:01.399Z,100754.28
2017-06-09T14:22:33.902Z,100748.06
2017-06-09T14:25:06.302Z,100751.30
2017-06-09T14:27:38.774Z,100752.71
2017-06-09T14:30:11.239Z,100761.61
2017-06-09T14:32:43.667Z,100760.58
2017-06-09T14:35:16.166Z,100757.51
2017-06-09T14:37:48.806Z,100748.20
2017-06-09T14:40:21.094Z,100747.72
2017-06-09T14:42:53.739Z,100750.73
2017-06-09T14:45:26.171Z,100748.02
2017-06-09T14:47:58.591Z,100744.55
2017-06-09T14:50:31.002Z,100747.95
2017-06-09T14:53:03.460Z,100737.56
2017-06-09T14:55:35.775Z,100730.63
2017-06-09T14:58:08.228Z,100727.44
2017-06-09T15:00:40.520Z,100735.34
2017-06-09T15:03:12.939Z,100734.41
2017-06-09T15:05:45.324Z,100735.41
2017-06-09T15:08:17.739Z,100740.87
2017-06-09T15:10:50.079Z,100739.41
2017-06-09T15:13:22.523Z,100742.90
2017-06-09T15:15:54.931Z,100735.61
2017-06-09T15:18:27.195Z,100737.96
2017-06-09T15:20:59.609Z,100740.08
2017-06-09T15:23:31.991Z,100742.80
2017-06-09T15:26:04.280Z,100741.36
2017-06-09T15:28:36.694Z,100742.72
2017-06-09T15:31:09.096Z,100735.53
2017-06-09T15:33:41.580Z,100747.61
2017-06-09T15:36:14.122Z,100749.28
2017-06-09T15:38:46.410Z,100749.67
2017-06-09T15:41:19.314Z,100755.70
2017-06-09T15:43:51.343Z,100759.37
2017-06-09T15:46:23.711Z,100775.58
2017-06-09T15:48:56.558Z,100773.34
2017-06-09T15:51:28.430Z,100767.64
2017-06-09T15:54:00.919Z,100765.87
2017-06-09T15:56:33.298Z,100786.18
2017-06-09T15:59:05.667Z,100784.91
2017-06-09T16:01:38.063Z,100779.09
2017-06-09T16:04:10.505Z,100785.94
2017-06-09T16:06:42.895Z,100780.49
2017-06-09T16:09:15.296Z,100776.80
2017-06-09T16:11:47.619Z,100780.28
2017-06-09T16:14:20.995Z,100773.58
2017-06-09T16:16:53.359Z,100769.63
2017-06-09T16:19:25.771Z,100776.52
2017-06-09T16:21:58.223Z,100773.15
2017-06-09T16:24:30.654Z,100772.82
2017-06-09T16:27:03.047Z,100770.67
2017-06-09T16:29:35.484Z,100772.91
2017-06-09T16:32:07.863Z,100779.59
2017-06-09T16:34:40.548Z,100782.24
2017-06-09T16:37:12.932Z,100780.39
2017-06-09T16:39:45.467Z,100782.78
2017-06-09T16:42:17.787Z,100778.54
2017-06-09T16:44:50.256Z,100777.22
2017-06-09T16:47:22.660Z,100779.08
2017-06-09T16:49:55.055Z,100782.40
2017-06-09T16:52:27.508Z,100786.51
2017-06-09T16:54:59.924Z,100785.19
2017-06-09T16:57:32.460Z,100793.73
2017-06-09T17:00:05.139Z,100798.61
2017-06-09T17:02:37.567Z,100797.58
2017-06-09T17:05:10.070Z,100803.30
2017-06-09T17:07:42.531Z,100801.19
2017-06-09T17:10:15.012Z,100802.94
2017-06-09T17:12:47.305Z,100814.41
2017-06-09T17:15:20.784Z,100816.36
2017-06-09T17:17:53.144Z,100826.08
2017-06-09T17:20:26.562Z,100830.59
2017-06-09T17:22:58.875Z,100836.38
2017-06-09T17:25:31.316Z,100836.37
2017-06-09T17:28:03.755Z,100845.84
2017-06-09T17:30:36.176Z,100845.17
2017-06-09T17:33:08.559Z,100839.52
2017-06-09T17:35:41.091Z,100853.36
2017-06-09T17:38:13.436Z,100861.80
2017-06-09T17:40:45.867Z,100853.12
2017-06-09T17:43:18.238Z,100859.65
2017-06-09T17:45:50.754Z,100855.59
2017-06-09T17:48:23.503Z,100858.28
2017-06-09T17:50:56.164Z,100855.56
2017-06-09T17:53:28.790Z,100862.05
2017-06-09T17:56:01.134Z,100864.37
2017-06-09T17:58:33.535Z,100867.34
2017-06-09T18:01:05.914Z,100870.16
2017-06-09T18:03:38.127Z,100871.80
2017-06-09T18:06:10.581Z,100874.67
2017-06-09T18:08:43.471Z,100881.73
2017-06-09T18:11:15.412Z,100886.66
2017-06-09T18:13:47.771Z,100878.81
2017-06-09T18:16:20.258Z,100880.67
2017-06-09T18:18:52.579Z,100888.20
2017-06-09T18:21:24.847Z,100891.20
2017-06-09T18:23:57.165Z,100895.63
2017-06-09T18:26:29.652Z,100895.30
2017-06-09T18:29:02.060Z,100900.52
2017-06-09T18:31:34.599Z,100908.22
2017-06-09T18:34:07.378Z,100910.38
2017-06-09T18:36:39.500Z,100919.14
2017-06-09T18:39:11.884Z,100921.01
2017-06-09T18:41:44.435Z,100922.13
2017-06-09T18:44:16.765Z,100931.28
2017-06-09T18:46:49.088Z,100935.64
2017-06-09T18:49:21.606Z,100936.30
2017-06-09T18:51:54.063Z,100944.23
2017-06-09T18:54:26.472Z,100945.27
2017-06-09T18:56:59.219Z,100948.38
2017-06-09T18:59:31.230Z,100947.59
2017-06-09T19:02:03.723Z,100953.67
2017-06-09T19:04:36.023Z,100957.72
2017-06-09T19:07:08.670Z,100960.19
2017-06-09T19:09:40.854Z,100969.58
2017-06-09T19:12:13.287Z,100972.51
2017-06-09T19:14:45.638Z,100982.33
2017-06-09T19:17:18.410Z,100987.78
2017-06-09T19:19:50.606Z,100989.89
2017-06-09T19:22:24.109Z,100998.77
2017-06-09T19:24:56.531Z,100997.27
2017-06-09T19:27:29.010Z,101002.16
2017-06-09T19:30:01.308Z,101009.80
2017-06-09T19:32:34.729Z,101014.51
2017-06-09T19:35:07.179Z,101017.59
2017-06-09T19:37:39.968Z,101018.66
2017-06-09T19:40:12.107Z,101026.81
2017-06-09T19:42:44.539Z,101028.47
2017-06-09T19:45:16.827Z,101033.91
2017-06-09T19:47:49.300Z,101035.29
2017-06-09T19:50:21.769Z,101035.22
2017-06-09T19:52:54.135Z,101045.50
2017-06-09T19:55:26.578Z,101049.61
2017-06-09T19:57:59.382Z,101048.25
2017-06-09T20:00:31.592Z,101058.07
2017-06-09T20:03:03.659Z,101058.31
2017-06-09T20:05:36.870Z,101066.52
2017-06-09T20:08:09.330Z,101074.56
2017-06-09T20:10:41.662Z,101077.67
2017-06-09T20:13:14.156Z,101073.23
2017-06-09T20:15:46.396Z,101081.42
2017-06-09T20:18:18.811Z,101081.69
2017-06-09T20:20:51.175Z,101083.42
2017-06-09T20:23:23.499Z,101090.38
2017-06-09T20:25:56.517Z,101088.72
2017-06-09T20:28:29.297Z,101093.94
2017-06-09T20:31:01.735Z,101095.41
2017-06-09T20:33:34.255Z,101099.50
2017-06-09T20:36:06.599Z,101099.63
2017-06-09T20:38:39.228Z,101113.69
2017-06-09T20:41:11.671Z,101116.61
2017-06-09T20:43:44.183Z,101108.47
2017-06-09T20:46:16.535Z,101113.36
2017-06-09T20:48:48.922Z,101116.17
2017-06-09T20:51:21.467Z,101122.56
2017-06-09T20:53:53.807Z,101124.68
2017-06-09T20:56:26.219Z,101126.55
2017-06-09T20:58:58.635Z,101128.76
2017-06-09T21:01:31.003Z,101127.89
2017-06-09T21:04:03.347Z,101128.92
2017-06-09T21:06:35.702Z,101136.74
2017-06-09T21:09:08.044Z,101137.78
2017-06-09T21:11:40.395Z,101136.79
2017-06-09T21:14:13.012Z,101147.16
2017-06-09T21:16:45.037Z,101145.99
2017-06-09T21:19:17.519Z,101154.12
2017-06-09T21:21:49.859Z,101152.52
2017-06-09T21:24:22.175Z,101144.92
2017-06-09T21:26:54.587Z,101150.50
2017-06-09T21:29:27.067Z,101160.61
2017-06-09T21:31:59.368Z,101163.14
2017-06-09T21:34:31.762Z,101159.73
2017-06-09T21:37:04.933Z,101159.44
2017-06-09T21:39:37.636Z,101166.33
2017-06-09T21:42:09.887Z,101166.11
2017-06-09T21:44:42.052Z,101162.19
2017-06-09T21:47:14.475Z,101160.03
2017-06-09T21:49:46.894Z,101162.96
2017-06-09T21:52:19.392Z,101166.07
2017-06-09T21:54:51.939Z,101167.42
2017-06-09T21:57:23.943Z,101165.59
2017-06-09T21:59:56.295Z,101167.55
2017-06-09T22:02:28.833Z,101171.09
2017-06-09T22:05:01.069Z,101171.05
2017-06-09T22:07:33.360Z,101168.86
2017-06-09T22:10:05.625Z,101177.31
2017-06-09T22:12:39.455Z,101176.86
2017-06-09T22:15:11.531Z,101175.83
2017-06-09T22:17:43.763Z,101167.72
2017-06-09T22:20:16.146Z,101171.83
2017-06-09T22:22:48.455Z,101177.64
2017-06-09T22:25:20.915Z,101183.20
2017-06-09T22:27:53.366Z,101183.58
2017-06-09T22:30:25.902Z,101188.39
2017-06-09T22:32:58.196Z,101190.13
2017-06-09T22:35:30.528Z,101184.27
2017-06-09T22:38:03.001Z,101199.39
2017-06-09T22:40:35.449Z,101200.98
2017-06-09T22:43:07.819Z,101196.67
2017-06-09T22:45:40.219Z,101197.67
2017-06-09T22:48:12.504Z,101194.16
2017-06-09T22:50:45.854Z,101193.79
2017-06-09T22:53:18.278Z,101199.13
2017-06-09T22:55:50.618Z,101197.84
2017-06-09T22:58:23.085Z,101203.40
2017-06-09T23:00:55.587Z,101209.86
2017-06-09T23:03:27.948Z,101207.45
2017-06-09T23:06:00.336Z,101209.99
2017-06-09T23:08:32.739Z,101213.23
2017-06-09T23:11:05.305Z,101206.54
2017-06-09T23:13:38.276Z,101217.12
2017-06-09T23:16:10.986Z,101222.66
2017-06-09T23:18:43.488Z,101215.45
2017-06-09T23:21:16.150Z,101222.95
2017-06-09T23:23:48.482Z,101225.16
2017-06-09T23:26:21.200Z,101228.96
2017-06-09T23:28:54.457Z,101225.85
2017-06-09T23:31:32.519Z,101228.03
2017-06-09T23:34:04.915Z,101222.27
2017-06-09T23:36:37.371Z,101225.36
2017-06-09T23:39:09.651Z,101231.59
2017-06-09T23:41:42.547Z,101227.59
2017-06-09T23:44:21.508Z,101228.95
2017-06-09T23:46:54.142Z,101228.63
2017-06-09T23:49:26.534Z,101221.86
2017-06-09T23:51:58.820Z,101225.87
2017-06-09T23:54:31.274Z,101231.06
2017-06-09T23:57:03.627Z,101230.22
2017-06-09T23:59:36.035Z,101236.20
